Time;durP1;ratioP1;P1;durP2;ratioP2;P2;SDS_P1;SDS_P2;PMS_P1;PMS_P2;Temp;Humidity;BMP_temperature;BMP_pressure;BME280_temperature;BME280_humidity;BME280_pressure;Samples;Min_cycle;Max_cycle;Signal;HPM_P1;HPM_P2
2021/03/25 00:00:40;;;;;;;70.32;31.83;;;8.40;99.90;;;;;;5067769;28;20119;-75
2021/03/25 00:03:09;;;;;;;71.63;31.92;;;8.40;99.90;;;;;;5069537;28;20035;-74
2021/03/25 00:05:35;;;;;;;61.83;30.10;;;8.50;99.90;;;;;;5068316;28;20028;-74
2021/03/25 00:08:03;;;;;;;68.18;31.70;;;8.60;99.90;;;;;;5067297;28;20712;-74
2021/03/25 00:10:32;;;;;;;69.05;30.73;;;8.70;99.90;;;;;;5068553;28;20476;-75
2021/03/25 00:12:59;;;;;;;64.47;30.20;;;8.60;99.90;;;;;;5069221;28;20020;-74
2021/03/25 00:15:26;;;;;;;69.43;31.92;;;8.60;99.90;;;;;;5068673;28;20099;-73
2021/03/25 00:17:51;;;;;;;73.93;32.72;;;8.60;99.90;;;;;;5067807;28;20028;-73
2021/03/25 00:20:17;;;;;;;72.20;33.05;;;8.60;99.90;;;;;;5068107;28;20036;-73
2021/03/25 00:22:43;;;;;;;74.43;33.30;;;8.50;99.90;;;;;;5067917;28;20028;-74
2021/03/25 00:25:16;;;;;;;68.18;33.30;;;8.60;99.90;;;;;;5059393;28;20021;-74
2021/03/25 00:27:42;;;;;;;77.72;34.28;;;8.60;99.90;;;;;;5066018;28;20377;-74
2021/03/25 00:30:11;;;;;;;76.55;33.90;;;8.50;99.90;;;;;;5080716;28;20512;-74
2021/03/25 00:32:38;;;;;;;79.03;35.60;;;8.40;99.90;;;;;;5081012;28;20020;-75
2021/03/25 00:35:11;;;;;;;78.30;34.97;;;8.30;99.90;;;;;;5070235;28;20017;-72
2021/03/25 00:37:38;;;;;;;77.88;34.17;;;8.40;99.90;;;;;;5072391;28;20035;-73
2021/03/25 00:40:06;;;;;;;71.15;34.42;;;8.40;99.90;;;;;;5066665;28;20029;-74
2021/03/25 00:42:32;;;;;;;77.72;35.13;;;8.30;99.90;;;;;;5067220;28;20023;-73
2021/03/25 00:44:58;;;;;;;86.07;35.65;;;8.30;99.90;;;;;;5061388;28;20024;-73
2021/03/25 00:47:23;;;;;;;77.82;34.80;;;8.30;99.90;;;;;;5068811;28;20028;-74
2021/03/25 00:49:49;;;;;;;70.53;35.17;;;8.30;99.90;;;;;;5069432;28;20071;-74
2021/03/25 00:52:15;;;;;;;68.03;33.67;;;8.30;99.90;;;;;;5066780;28;20086;-74
2021/03/25 00:54:40;;;;;;;74.03;34.92;;;8.30;99.90;;;;;;5068995;28;20028;-73
2021/03/25 00:57:06;;;;;;;80.18;36.47;;;8.30;99.90;;;;;;5067713;28;20025;-74
2021/03/25 00:59:32;;;;;;;92.57;39.00;;;8.20;99.90;;;;;;5067147;28;20396;-74
2021/03/25 01:01:58;;;;;;;80.15;37.88;;;8.20;99.90;;;;;;5063939;28;20039;-74
2021/03/25 01:04:24;;;;;;;82.38;37.33;;;8.20;99.90;;;;;;5068871;28;20021;-74
2021/03/25 01:06:50;;;;;;;82.50;37.72;;;8.10;99.90;;;;;;5065367;28;20317;-74
2021/03/25 01:09:24;;;;;;;92.80;39.08;;;8.10;99.90;;;;;;5057832;28;20017;-74
2021/03/25 01:11:51;;;;;;;93.25;40.80;;;8.10;99.90;;;;;;5060251;28;20040;-72
2021/03/25 01:14:22;;;;;;;96.50;41.22;;;8.20;99.90;;;;;;5063243;28;20051;-72
2021/03/25 01:16:49;;;;;;;82.43;37.78;;;8.20;99.90;;;;;;5069080;28;20016;-74
2021/03/25 01:19:23;;;;;;;92.25;40.40;;;8.20;99.90;;;;;;5067645;28;20024;-72
2021/03/25 01:21:50;;;;;;;98.50;40.33;;;8.10;99.90;;;;;;5066068;28;20020;-74
2021/03/25 01:24:15;;;;;;;89.57;41.25;;;8.10;99.90;;;;;;5067449;28;20060;-73
2021/03/25 01:26:41;;;;;;;90.43;39.28;;;8.10;99.90;;;;;;5061813;28;20061;-73
2021/03/25 01:29:07;;;;;;;89.93;40.47;;;8.00;99.90;;;;;;5062175;28;20083;-74
2021/03/25 01:31:33;;;;;;;84.10;37.55;;;8.00;99.90;;;;;;5066919;28;20036;-72
2021/03/25 01:34:00;;;;;;;91.72;40.03;;;7.90;99.90;;;;;;5066994;28;20055;-73
2021/03/25 01:36:26;;;;;;;94.45;40.92;;;7.90;99.90;;;;;;5065617;28;20029;-74
2021/03/25 01:38:52;;;;;;;96.38;41.47;;;7.90;99.90;;;;;;5062083;28;20036;-73
2021/03/25 01:41:18;;;;;;;89.35;41.75;;;7.90;99.90;;;;;;5067758;28;20155;-73
2021/03/25 01:43:46;;;;;;;85.40;40.00;;;7.80;99.90;;;;;;5067235;28;20032;-73
2021/03/25 01:46:38;;;;;;;89.00;41.08;;;7.70;99.90;;;;;;5066586;28;20091;-75
2021/03/25 01:49:12;;;;;;;95.85;38.90;;;7.70;99.90;;;;;;5068390;28;20017;-74
2021/03/25 01:51:58;;;;;;;111.20;45.45;;;7.70;99.90;;;;;;5053931;28;20056;-74
2021/03/25 01:54:59;;;;;;;92.45;41.10;;;7.60;99.90;;;;;;5065579;28;20036;-74
2021/03/25 01:57:43;;;;;;;105.70;42.65;;;7.70;99.90;;;;;;5043930;28;20547;-73
2021/03/25 02:00:29;;;;;;;91.68;42.50;;;7.70;99.90;;;;;;5060967;28;20466;-72
2021/03/25 02:03:22;;;;;;;101.07;42.20;;;7.60;99.90;;;;;;5064712;28;20025;-74
2021/03/25 02:06:06;;;;;;;;;;;7.50;99.90;;;;;;5067437;28;20527;-74
2021/03/25 02:08:59;;;;;;;94.60;41.97;;;7.50;99.90;;;;;;5066246;28;19919;-72
2021/03/25 02:11:52;;;;;;;96.78;43.55;;;7.50;99.90;;;;;;5061987;28;20020;-74
2021/03/25 02:14:32;;;;;;;95.75;41.58;;;7.40;99.90;;;;;;5058401;28;20527;-75
2021/03/25 02:17:06;;;;;;;111.15;46.13;;;7.40;99.90;;;;;;5060868;28;20034;-74
2021/03/25 02:19:57;;;;;;;97.78;43.40;;;7.30;99.90;;;;;;5059679;28;20161;-74
2021/03/25 02:22:40;;;;;;;101.07;42.42;;;7.30;99.90;;;;;;5065699;28;20036;-71
2021/03/25 02:25:25;;;;;;;95.03;44.20;;;7.40;99.90;;;;;;5066208;28;20484;-74
2021/03/25 02:28:04;;;;;;;103.32;42.60;;;7.30;99.90;;;;;;5065334;28;20619;-75
2021/03/25 02:30:45;;;;;;;99.78;42.92;;;7.30;99.90;;;;;;5066095;28;20070;-73
2021/03/25 02:33:16;;;;;;;103.25;42.70;;;7.30;99.90;;;;;;5066405;28;20060;-73
2021/03/25 02:35:47;;;;;;;111.63;45.90;;;7.30;99.90;;;;;;5065525;28;20017;-73
2021/03/25 02:38:21;;;;;;;102.72;46.25;;;7.40;99.90;;;;;;5055863;28;20028;-73
2021/03/25 02:40:52;;;;;;;108.57;44.95;;;7.40;99.90;;;;;;5052740;28;20116;-73
2021/03/25 02:43:46;;;;;;;108.18;48.55;;;7.50;99.90;;;;;;5057744;28;20074;-73
2021/03/25 02:46:21;;;;;;;111.38;47.10;;;7.60;99.90;;;;;;5062756;28;20171;-74
2021/03/25 02:48:49;;;;;;;124.40;48.80;;;7.60;99.90;;;;;;5064259;28;20020;-74
2021/03/25 02:51:30;;;;;;;111.05;45.50;;;7.70;99.90;;;;;;5050668;28;20158;-76
2021/03/25 02:53:55;;;;;;;108.85;46.17;;;7.70;99.90;;;;;;5062999;28;20036;-73
2021/03/25 02:56:29;;;;;;;112.03;45.97;;;7.70;99.90;;;;;;5064435;28;20033;-74
2021/03/25 02:59:04;;;;;;;113.00;45.00;;;7.80;99.90;;;;;;5069538;28;20435;-73
2021/03/25 03:01:33;;;;;;;98.90;43.40;;;7.80;99.90;;;;;;5069416;28;20052;-73
2021/03/25 03:04:05;;;;;;;111.35;44.58;;;7.80;99.90;;;;;;5068440;28;20055;-72
2021/03/25 03:06:36;;;;;;;104.35;44.72;;;7.90;99.90;;;;;;5068033;28;20024;-73
2021/03/25 03:09:04;;;;;;;116.18;44.00;;;7.90;99.90;;;;;;5061390;28;20025;-74
2021/03/25 03:11:34;;;;;;;106.78;46.20;;;7.90;99.90;;;;;;5054271;28;20926;-76
2021/03/25 03:14:08;;;;;;;98.25;43.35;;;8.00;99.90;;;;;;5068502;28;20094;-75
2021/03/25 03:16:42;;;;;;;94.05;42.92;;;8.00;99.90;;;;;;5065353;28;20361;-72
2021/03/25 03:19:15;;;;;;;93.93;42.00;;;8.00;99.90;;;;;;5069434;28;20028;-73
2021/03/25 03:21:56;;;;;;;102.47;40.47;;;8.10;99.90;;;;;;5069236;28;20028;-73
2021/03/25 03:24:22;;;;;;;102.80;43.75;;;8.10;99.90;;;;;;5070366;28;20036;-73
2021/03/25 03:27:00;;;;;;;90.93;41.08;;;8.10;99.90;;;;;;5069837;28;20029;-73
2021/03/25 03:29:30;;;;;;;90.18;39.70;;;8.10;99.90;;;;;;5071153;28;20093;-72
2021/03/25 03:32:24;;;;;;;96.32;42.17;;;8.10;99.90;;;;;;5069602;28;20741;-73
2021/03/25 03:34:55;;;;;;;93.47;41.28;;;8.20;99.90;;;;;;5070421;28;20032;-74
2021/03/25 03:37:38;;;;;;;87.50;39.38;;;8.20;99.90;;;;;;5066390;28;20039;-74
2021/03/25 03:40:06;;;;;;;;;;;8.20;99.90;;;;;;5069797;28;20441;-73
2021/03/25 03:42:32;;;;;;;85.80;40.03;;;8.20;99.90;;;;;;5067406;28;19912;-73
2021/03/25 03:45:00;;;;;;;94.95;40.97;;;8.20;99.90;;;;;;5069311;28;20036;-74
2021/03/25 03:47:29;;;;;;;85.88;39.95;;;8.20;99.90;;;;;;5067968;28;20081;-74
2021/03/25 03:50:07;;;;;;;106.05;41.70;;;8.20;99.90;;;;;;5067294;28;20033;-74
2021/03/25 03:52:37;;;;;;;87.75;39.58;;;8.30;99.90;;;;;;5058746;28;20090;-74
2021/03/25 03:55:06;;;;;;;84.20;40.92;;;8.30;99.90;;;;;;5068799;28;20043;-74
2021/03/25 03:57:43;;;;;;;96.30;41.63;;;8.30;99.90;;;;;;5068640;28;20159;-73
2021/03/25 04:00:16;;;;;;;75.88;38.97;;;8.30;99.90;;;;;;5062119;28;20032;-74
2021/03/25 04:02:52;;;;;;;86.00;40.08;;;8.30;99.90;;;;;;5067323;28;20498;-74
2021/03/25 04:05:24;;;;;;;93.63;41.47;;;8.40;99.90;;;;;;5059846;28;20028;-74
2021/03/25 04:08:05;;;;;;;95.10;41.38;;;8.30;99.90;;;;;;5069049;28;20039;-73
2021/03/25 04:10:42;;;;;;;95.78;41.92;;;8.30;99.90;;;;;;5069011;28;20050;-73
2021/03/25 04:13:14;;;;;;;88.38;41.38;;;8.20;99.90;;;;;;5068504;28;20047;-74
2021/03/25 04:15:45;;;;;;;78.85;40.70;;;8.20;99.90;;;;;;5058978;28;20548;-73
2021/03/25 04:18:37;;;;;;;86.97;39.35;;;8.20;99.90;;;;;;5065411;28;20040;-73
2021/03/25 04:21:25;;;;;;;81.43;39.40;;;8.20;99.90;;;;;;5058469;28;20036;-72
2021/03/25 04:23:53;;;;;;;86.75;40.63;;;8.20;99.90;;;;;;5067593;28;20088;-72
2021/03/25 04:26:40;;;;;;;92.80;40.50;;;8.10;99.90;;;;;;5068907;28;20100;-73
2021/03/25 04:29:15;;;;;;;98.20;40.13;;;8.10;99.90;;;;;;5068819;28;20027;-73
2021/03/25 04:31:41;;;;;;;87.85;40.50;;;8.00;99.90;;;;;;5062697;28;20169;-74
2021/03/25 04:34:10;;;;;;;84.70;39.50;;;8.00;99.90;;;;;;5068641;28;20051;-73
2021/03/25 04:36:43;;;;;;;92.75;41.70;;;8.10;99.90;;;;;;5064320;28;20040;-73
2021/03/25 04:39:11;;;;;;;96.38;39.97;;;8.20;99.90;;;;;;5067016;28;20119;-73
2021/03/25 04:41:40;;;;;;;87.97;42.42;;;8.30;99.90;;;;;;5066731;28;20112;-72
2021/03/25 04:44:14;;;;;;;88.30;40.72;;;8.30;99.90;;;;;;5066469;28;20388;-73
2021/03/25 04:47:00;;;;;;;87.00;41.15;;;8.20;99.90;;;;;;5065221;28;20055;-74
2021/03/25 04:49:39;;;;;;;89.85;40.28;;;8.20;99.90;;;;;;5063686;28;20029;-72
2021/03/25 04:52:11;;;;;;;88.10;42.17;;;8.10;99.90;;;;;;5066182;28;20013;-73
2021/03/25 04:54:39;;;;;;;89.30;41.22;;;8.10;99.90;;;;;;5067096;28;20021;-72
2021/03/25 04:57:24;;;;;;;90.80;42.22;;;8.00;99.90;;;;;;5069486;28;20024;-72
2021/03/25 04:59:51;;;;;;;82.80;39.53;;;8.00;99.90;;;;;;5076737;28;20048;-74
2021/03/25 05:02:17;;;;;;;94.78;41.78;;;8.00;99.90;;;;;;5079652;28;20554;-74
2021/03/25 05:04:47;;;;;;;92.63;42.67;;;8.10;99.90;;;;;;5073985;28;20024;-73
2021/03/25 05:07:24;;;;;;;100.43;43.20;;;8.10;99.90;;;;;;5070111;28;20028;-73
2021/03/25 05:09:51;;;;;;;90.53;42.33;;;8.00;99.90;;;;;;5068768;28;20035;-73
2021/03/25 05:12:18;;;;;;;92.82;42.67;;;7.90;99.90;;;;;;5064535;28;20357;-72
2021/03/25 05:14:46;;;;;;;102.40;42.13;;;8.00;99.90;;;;;;5067558;28;20505;-71
2021/03/25 05:17:31;;;;;;;81.88;41.22;;;8.00;99.90;;;;;;5068293;28;20029;-72
2021/03/25 05:20:06;;;;;;;84.70;38.58;;;8.10;99.90;;;;;;5071551;28;20028;-74
2021/03/25 05:22:53;;;;;;;94.10;39.63;;;8.10;99.90;;;;;;5078840;28;20025;-72
2021/03/25 05:25:54;;;;;;;86.80;41.17;;;8.00;99.90;;;;;;5069929;28;20044;-75
2021/03/25 05:28:36;;;;;;;92.63;41.00;;;8.00;99.90;;;;;;5078642;28;20081;-73
2021/03/25 05:31:06;;;;;;;94.22;42.40;;;7.90;99.90;;;;;;5079531;28;20063;-73
2021/03/25 05:33:34;;;;;;;85.45;41.83;;;7.90;99.90;;;;;;5076431;28;20107;-72
2021/03/25 05:36:03;;;;;;;85.70;40.80;;;7.90;99.90;;;;;;5068595;28;20028;-73
2021/03/25 05:38:29;;;;;;;86.05;40.63;;;8.00;99.90;;;;;;5068269;28;20106;-74
2021/03/25 05:41:06;;;;;;;90.03;43.92;;;8.10;99.90;;;;;;5069287;28;20111;-73
2021/03/25 05:43:48;;;;;;;84.13;40.97;;;8.10;99.90;;;;;;5061451;28;20033;-75
2021/03/25 05:46:49;;;;;;;92.10;40.78;;;8.00;99.90;;;;;;5069046;28;20414;-73
2021/03/25 05:49:36;;;;;;;90.00;40.58;;;7.90;99.90;;;;;;5051965;28;20044;-74
2021/03/25 05:52:55;;;;;;;96.93;42.70;;;8.00;99.90;;;;;;5068123;28;20048;-73
2021/03/25 05:55:49;;;;;;;85.25;37.75;;;8.00;99.90;;;;;;5023792;28;20021;-73
2021/03/25 05:58:21;;;;;;;92.47;40.60;;;8.10;99.90;;;;;;5025188;28;20191;-74
2021/03/25 06:01:16;;;;;;;83.60;40.63;;;8.00;99.90;;;;;;5042796;28;20372;-72
2021/03/25 06:04:01;;;;;;;91.45;41.13;;;8.00;99.90;;;;;;5054108;28;20033;-73
2021/03/25 06:06:48;;;;;;;90.93;41.05;;;7.90;99.90;;;;;;5065153;28;20013;-71
2021/03/25 06:09:48;;;;;;;90.47;40.70;;;8.00;99.90;;;;;;5061694;28;20039;-72
2021/03/25 06:12:55;;;;;;;88.35;39.63;;;8.00;99.90;;;;;;5066204;28;20033;-72
2021/03/25 06:15:59;;;;;;;108.40;42.90;;;7.90;99.90;;;;;;5066058;28;20461;-71
2021/03/25 06:18:45;;;;;;;97.32;41.95;;;7.90;99.90;;;;;;5066274;28;20060;-74
2021/03/25 06:21:25;;;;;;;94.38;42.78;;;7.90;99.90;;;;;;5067634;28;20070;-72
2021/03/25 06:24:18;;;;;;;85.97;39.28;;;7.90;99.90;;;;;;5066732;28;20089;-73
2021/03/25 06:27:02;;;;;;;81.93;40.83;;;8.00;99.90;;;;;;5065110;28;20116;-74
2021/03/25 06:29:37;;;;;;;83.18;38.90;;;8.00;99.90;;;;;;5069920;28;20638;-73
2021/03/25 06:32:20;;;;;;;81.47;39.58;;;8.00;99.90;;;;;;5065835;28;20048;-72
2021/03/25 06:35:03;;;;;;;100.82;42.80;;;8.00;99.90;;;;;;5068332;28;20447;-71
2021/03/25 06:37:36;;;;;;;94.05;41.47;;;8.10;99.90;;;;;;5067325;28;20028;-71
2021/03/25 06:40:10;;;;;;;91.25;40.50;;;8.00;99.90;;;;;;5068501;28;20130;-73
2021/03/25 06:42:44;;;;;;;87.32;40.72;;;8.10;99.90;;;;;;5067400;28;20138;-73
2021/03/25 06:45:28;;;;;;;89.32;41.35;;;8.10;99.90;;;;;;5069242;28;20025;-73
2021/03/25 06:48:06;;;;;;;81.80;37.78;;;8.10;99.90;;;;;;5069128;28;20358;-73
2021/03/25 06:50:45;;;;;;;83.60;40.40;;;8.20;99.90;;;;;;5069655;28;20025;-73
2021/03/25 06:53:30;;;;;;;82.05;40.28;;;8.20;99.90;;;;;;5064187;28;20484;-73
2021/03/25 06:56:05;;;;;;;85.93;39.67;;;8.30;99.90;;;;;;5052741;28;20036;-72
2021/03/25 06:58:53;;;;;;;79.75;37.35;;;8.20;99.90;;;;;;5068903;28;20055;-72
2021/03/25 07:01:41;;;;;;;82.20;38.03;;;8.30;99.90;;;;;;5060905;28;20120;-72
2021/03/25 07:04:16;;;;;;;93.60;39.65;;;8.30;99.90;;;;;;5066842;28;20028;-71
2021/03/25 07:06:41;;;;;;;82.20;38.70;;;8.30;99.90;;;;;;5067911;28;20228;-72
2021/03/25 07:09:14;;;;;;;89.60;37.78;;;8.40;99.90;;;;;;5068998;28;20016;-72
2021/03/25 07:11:42;;;;;;;77.07;35.95;;;8.40;99.90;;;;;;5069070;28;20104;-73
2021/03/25 07:14:14;;;;;;;85.40;36.50;;;8.50;99.90;;;;;;5057651;28;20064;-71
2021/03/25 07:16:44;;;;;;;79.65;36.28;;;8.50;99.90;;;;;;5067326;28;20020;-73
2021/03/25 07:19:21;;;;;;;70.70;35.35;;;8.60;99.90;;;;;;5068473;28;20028;-72
2021/03/25 07:21:48;;;;;;;89.40;38.65;;;8.70;99.90;;;;;;5069704;28;20467;-73
2021/03/25 07:24:23;;;;;;;71.45;35.22;;;8.80;99.90;;;;;;5068667;28;20021;-74
2021/03/25 07:26:56;;;;;;;65.95;33.05;;;8.80;99.90;;;;;;5068759;28;20565;-71
2021/03/25 07:29:33;;;;;;;75.65;36.65;;;8.90;99.90;;;;;;5070349;28;20028;-72
2021/03/25 07:32:20;;;;;;;80.95;36.88;;;8.80;99.90;;;;;;5069512;28;20542;-73
2021/03/25 07:34:49;;;;;;;73.85;37.90;;;8.80;99.90;;;;;;5070002;28;20036;-72
2021/03/25 07:37:36;;;;;;;71.32;36.92;;;8.80;99.90;;;;;;5069793;28;20024;-72
2021/03/25 07:40:25;;;;;;;72.63;34.63;;;8.90;99.90;;;;;;5072490;28;20511;-72
2021/03/25 07:42:52;;;;;;;72.00;35.60;;;8.90;99.90;;;;;;5060968;28;20032;-72
2021/03/25 07:45:27;;;;;;;76.43;37.97;;;9.00;99.90;;;;;;5071001;28;20740;-72
2021/03/25 07:47:54;;;;;;;74.20;35.00;;;9.00;99.90;;;;;;5073688;28;20051;-71
2021/03/25 07:50:31;;;;;;;75.07;35.38;;;9.00;99.90;;;;;;5072737;28;20082;-72
2021/03/25 07:53:14;;;;;;;77.28;35.80;;;9.00;99.90;;;;;;5060027;28;20063;-72
2021/03/25 07:55:40;;;;;;;77.82;35.65;;;9.00;99.90;;;;;;5072102;28;20228;-73
2021/03/25 07:58:05;;;;;;;72.68;35.33;;;9.00;99.90;;;;;;5072234;28;20466;-72
2021/03/25 08:00:35;;;;;;;74.57;36.17;;;9.10;99.90;;;;;;5072340;28;20060;-71
2021/03/25 08:03:21;;;;;;;65.78;35.50;;;9.30;99.90;;;;;;5073150;28;20488;-72
2021/03/25 08:05:49;;;;;;;75.22;36.22;;;9.30;99.90;;;;;;5072382;28;20021;-74
2021/03/25 08:08:32;;;;;;;72.32;36.20;;;9.30;99.90;;;;;;5073075;28;20021;-73
2021/03/25 08:11:09;;;;;;;80.32;36.92;;;9.40;99.90;;;;;;5073077;28;20080;-72
2021/03/25 08:13:36;;;;;;;71.53;35.15;;;9.40;99.90;;;;;;5071991;28;20387;-70
2021/03/25 08:16:08;;;;;;;78.15;36.17;;;9.40;99.90;;;;;;5071687;28;20025;-72
2021/03/25 08:18:42;;;;;;;74.82;34.15;;;9.40;99.90;;;;;;5067635;28;20388;-72
2021/03/25 08:21:22;;;;;;;71.50;35.38;;;9.40;99.90;;;;;;5052200;28;20336;-71
2021/03/25 08:24:12;;;;;;;71.35;34.35;;;9.50;99.90;;;;;;5070671;28;20016;-73
2021/03/25 08:26:50;;;;;;;64.65;32.30;;;9.60;99.90;;;;;;5071292;28;20091;-74
2021/03/25 08:29:48;;;;;;;64.72;32.70;;;9.70;99.90;;;;;;5073408;28;20583;-74
2021/03/25 08:32:38;;;;;;;57.63;31.00;;;9.80;99.90;;;;;;5072427;28;20028;-74
2021/03/25 08:35:19;;;;;;;62.90;29.65;;;9.80;99.90;;;;;;5071590;28;20055;-74
2021/03/25 08:37:52;;;;;;;68.22;31.50;;;9.90;99.90;;;;;;5073280;28;20025;-73
2021/03/25 08:40:31;;;;;;;68.85;32.80;;;9.90;99.90;;;;;;5071193;28;20036;-74
2021/03/25 08:43:00;;;;;;;60.50;31.30;;;9.80;99.90;;;;;;5072546;28;20527;-73
2021/03/25 08:45:51;;;;;;;69.70;32.20;;;9.70;99.90;;;;;;5072320;28;20029;-72
2021/03/25 08:48:29;;;;;;;63.95;29.77;;;9.70;99.90;;;;;;5072198;28;20021;-73
2021/03/25 08:51:30;;;;;;;55.45;28.63;;;9.60;99.90;;;;;;5071197;28;20021;-73
2021/03/25 08:54:04;;;;;;;61.63;30.08;;;9.60;99.90;;;;;;5064832;28;20086;-73
2021/03/25 08:56:41;;;;;;;57.95;29.98;;;9.60;99.90;;;;;;5073230;28;20112;-73
2021/03/25 08:59:23;;;;;;;55.50;28.13;;;9.50;99.90;;;;;;5072219;28;20031;-74
2021/03/25 09:02:00;;;;;;;52.20;27.13;;;9.40;99.90;;;;;;5070854;28;20021;-75
2021/03/25 09:04:33;;;;;;;58.95;29.10;;;9.40;99.90;;;;;;5069944;28;20048;-71
2021/03/25 09:07:03;;;;;;;55.53;28.52;;;9.40;99.90;;;;;;5068535;28;20507;-71
2021/03/25 09:09:44;;;;;;;53.03;28.75;;;9.50;99.90;;;;;;5069724;28;20044;-73
2021/03/25 09:12:32;;;;;;;59.83;28.83;;;9.50;99.90;;;;;;5070606;28;20028;-72
2021/03/25 09:15:06;;;;;;;61.15;29.20;;;9.50;99.90;;;;;;5069955;28;20452;-73
2021/03/25 09:17:38;;;;;;;51.63;27.73;;;9.60;99.90;;;;;;5070747;28;20040;-72
2021/03/25 09:20:12;;;;;;;48.73;27.33;;;9.60;99.90;;;;;;5059172;28;20028;-75
2021/03/25 09:23:01;;;;;;;46.03;25.52;;;9.50;99.90;;;;;;5064367;28;20055;-73
2021/03/25 09:25:26;;;;;;;52.90;26.38;;;9.50;99.90;;;;;;5070810;28;20028;-72
2021/03/25 09:27:58;;;;;;;55.65;28.15;;;9.40;99.90;;;;;;5072078;28;20021;-73
2021/03/25 09:30:30;;;;;;;49.88;27.05;;;9.40;99.90;;;;;;5072514;28;20016;-74
2021/03/25 09:33:34;;;;;;;62.28;29.48;;;9.40;99.90;;;;;;5079544;28;20052;-73
2021/03/25 09:36:00;;;;;;;62.53;29.38;;;9.40;99.90;;;;;;5065871;28;20042;-74
2021/03/25 09:38:31;;;;;;;65.35;31.08;;;9.40;99.90;;;;;;5077575;28;20058;-74
2021/03/25 09:40:57;;;;;;;62.85;30.60;;;9.50;99.90;;;;;;5075302;28;20031;-73
2021/03/25 09:43:26;;;;;;;64.65;32.08;;;9.40;99.90;;;;;;5076177;28;20020;-75
2021/03/25 09:45:53;;;;;;;66.32;31.80;;;9.40;99.90;;;;;;5072589;28;20048;-73
2021/03/25 09:48:27;;;;;;;67.75;32.38;;;9.40;99.90;;;;;;5066941;28;20033;-78
2021/03/25 09:51:06;;;;;;;72.30;32.92;;;9.50;99.90;;;;;;5070053;28;20056;-74
2021/03/25 09:53:51;;;;;;;80.90;35.50;;;9.50;99.90;;;;;;5072016;28;20030;-74
2021/03/25 09:56:28;;;;;;;83.20;34.63;;;9.40;99.90;;;;;;5057753;28;20636;-74
2021/03/25 09:58:54;;;;;;;76.05;34.70;;;9.40;99.90;;;;;;5069493;28;20017;-71
2021/03/25 10:01:45;;;;;;;81.70;34.88;;;9.40;99.90;;;;;;5069307;28;20526;-73
2021/03/25 10:04:33;;;;;;;85.90;34.13;;;9.40;99.90;;;;;;5070655;28;20376;-72
2021/03/25 10:07:26;;;;;;;83.65;32.50;;;9.30;99.90;;;;;;5070704;28;20046;-74
2021/03/25 10:10:04;;;;;;;87.00;34.30;;;9.40;99.90;;;;;;5070278;28;20038;-72
2021/03/25 10:12:49;;;;;;;83.07;34.50;;;9.30;99.90;;;;;;5072612;28;20035;-73
2021/03/25 10:15:42;;;;;;;78.53;34.35;;;9.40;99.90;;;;;;5073706;28;20524;-72
2021/03/25 10:18:14;;;;;;;;;;;9.50;99.90;;;;;;5072763;28;20049;-73
2021/03/25 10:20:43;;;;;;;87.63;35.72;;;9.50;99.90;;;;;;5075529;28;19914;-75
2021/03/25 10:23:20;;;;;;;90.75;35.35;;;9.50;99.90;;;;;;5073293;28;20236;-73
2021/03/25 10:25:52;;;;;;;84.03;35.35;;;9.40;99.90;;;;;;5073353;28;20456;-73
2021/03/25 10:28:55;;;;;;;104.18;38.47;;;9.50;99.90;;;;;;5072494;28;20324;-77
2021/03/25 10:31:23;;;;;;;;;;;9.50;99.90;;;;;;5073370;28;20045;-72
2021/03/25 10:33:54;;;;;;;99.47;35.50;;;9.50;99.90;;;;;;5073639;28;20220;-72
2021/03/25 10:36:25;;;;;;;97.70;36.58;;;9.40;99.90;;;;;;5074191;28;20020;-74
2021/03/25 10:38:53;;;;;;;92.25;37.38;;;9.40;99.90;;;;;;5074016;28;20052;-75
2021/03/25 10:41:24;;;;;;;93.32;37.00;;;9.50;99.90;;;;;;5075740;28;20047;-73
2021/03/25 10:43:50;;;;;;;97.80;39.05;;;9.50;99.90;;;;;;5062933;28;20056;-77
2021/03/25 10:46:32;;;;;;;91.00;37.03;;;9.50;99.90;;;;;;5074453;28;20025;-74
2021/03/25 10:49:04;;;;;;;90.60;37.92;;;9.50;99.90;;;;;;5074278;28;20358;-74
2021/03/25 10:51:32;;;;;;;87.15;33.92;;;9.60;99.90;;;;;;5072258;28;20033;-73
2021/03/25 10:54:04;;;;;;;81.78;33.15;;;9.60;99.90;;;;;;5070614;28;20059;-73
2021/03/25 10:56:39;;;;;;;67.90;33.00;;;9.70;99.90;;;;;;5070586;28;20056;-73
2021/03/25 10:59:12;;;;;;;65.53;29.98;;;9.90;99.90;;;;;;5069448;28;20108;-74
2021/03/25 11:01:50;;;;;;;64.80;28.15;;;10.10;99.90;;;;;;5069071;28;20017;-71
2021/03/25 11:04:23;;;;;;;64.18;30.08;;;10.30;99.90;;;;;;5069067;28;20013;-73
2021/03/25 11:06:49;;;;;;;61.65;29.30;;;10.50;99.90;;;;;;5069686;28;20240;-74
2021/03/25 11:09:29;;;;;;;57.85;26.83;;;10.50;99.90;;;;;;5067800;28;20017;-72
2021/03/25 11:12:19;;;;;;;53.55;26.52;;;10.70;99.90;;;;;;5070651;28;20029;-75
2021/03/25 11:14:51;;;;;;;65.80;31.38;;;10.80;99.90;;;;;;5075322;28;20476;-74
2021/03/25 11:17:23;;;;;;;50.97;27.08;;;10.70;99.90;;;;;;5076885;28;20025;-75
2021/03/25 11:19:59;;;;;;;49.33;24.80;;;10.70;99.90;;;;;;5076714;28;20040;-74
2021/03/25 11:22:25;;;;;;;51.60;25.50;;;10.70;99.90;;;;;;5073448;28;20132;-77
2021/03/25 11:24:51;;;;;;;46.45;26.27;;;10.60;99.90;;;;;;5073392;28;20408;-77
2021/03/25 11:27:23;;;;;;;45.90;24.25;;;10.50;99.90;;;;;;5058403;28;20021;-74
2021/03/25 11:30:16;;;;;;;53.27;26.70;;;10.50;99.90;;;;;;5059566;28;20503;-75
2021/03/25 11:32:44;;;;;;;57.15;26.75;;;10.50;99.90;;;;;;5059401;28;20253;-74
2021/03/25 11:35:24;;;;;;;44.58;25.67;;;10.50;99.90;;;;;;5070475;28;20104;-74
2021/03/25 11:37:51;;;;;;;54.70;26.55;;;10.90;99.90;;;;;;5071575;28;20024;-73
2021/03/25 11:40:23;;;;;;;47.08;27.10;;;11.50;99.90;;;;;;5071010;28;20032;-73
2021/03/25 11:43:07;;;;;;;47.40;25.75;;;12.10;99.90;;;;;;5059475;28;20032;-75
2021/03/25 11:45:45;;;;;;;48.35;25.45;;;11.80;99.90;;;;;;5067975;28;20112;-73
2021/03/25 11:48:25;;;;;;;47.88;25.15;;;11.50;99.90;;;;;;5072265;28;20113;-73
2021/03/25 11:50:52;;;;;;;49.10;23.83;;;11.70;99.90;;;;;;5069851;28;20052;-74
2021/03/25 11:53:37;;;;;;;48.42;24.92;;;12.30;99.90;;;;;;5070595;28;20040;-73
2021/03/25 11:56:04;;;;;;;45.67;23.50;;;12.70;99.90;;;;;;5066238;28;20376;-74
2021/03/25 11:58:30;;;;;;;39.03;21.70;;;12.40;99.90;;;;;;5064252;28;20017;-74
2021/03/25 12:01:06;;;;;;;41.10;20.38;;;12.40;99.90;;;;;;5070731;28;20078;-74
2021/03/25 12:03:45;;;;;;;35.38;20.77;;;13.10;99.90;;;;;;5072311;28;20034;-74
2021/03/25 12:06:21;;;;;;;42.03;21.23;;;13.70;99.90;;;;;;5070013;28;20426;-74
2021/03/25 12:08:47;;;;;;;36.00;21.42;;;13.00;99.90;;;;;;5071872;28;20021;-72
2021/03/25 12:11:13;;;;;;;25.95;15.63;;;12.60;99.90;;;;;;5071387;28;20292;-73
2021/03/25 12:13:41;;;;;;;44.72;17.55;;;13.10;99.90;;;;;;5072456;28;20024;-73
2021/03/25 12:16:09;;;;;;;32.97;15.98;;;13.70;99.90;;;;;;5067485;28;20201;-73
2021/03/25 12:18:40;;;;;;;36.38;16.48;;;14.10;99.90;;;;;;5070644;28;20439;-74
2021/03/25 12:21:09;;;;;;;43.67;17.50;;;13.60;99.90;;;;;;5072059;28;20025;-74
2021/03/25 12:23:38;;;;;;;37.80;13.68;;;13.10;99.90;;;;;;5069046;28;20571;-74
2021/03/25 12:26:08;;;;;;;23.40;10.98;;;12.70;99.90;;;;;;5071957;28;20031;-76
2021/03/25 12:28:35;;;;;;;25.45;11.27;;;12.80;99.90;;;;;;5070367;28;20051;-73
2021/03/25 12:31:02;;;;;;;21.98;9.38;;;12.90;99.90;;;;;;5071732;28;20016;-74
2021/03/25 12:33:36;;;;;;;22.40;10.48;;;13.50;99.90;;;;;;5056998;28;20032;-76
2021/03/25 12:36:03;;;;;;;26.90;9.30;;;14.20;99.90;;;;;;5071971;28;20033;-72
2021/03/25 12:38:29;;;;;;;25.27;7.95;;;14.10;99.90;;;;;;5071986;28;20028;-73
2021/03/25 12:40:55;;;;;;;14.27;6.20;;;14.20;99.90;;;;;;5072175;28;20028;-73
2021/03/25 12:43:26;;;;;;;14.27;6.45;;;14.50;99.90;;;;;;5072647;28;20013;-74
2021/03/25 12:46:01;;;;;;;16.13;6.45;;;14.50;99.90;;;;;;5070879;28;20029;-77
2021/03/25 12:48:27;;;;;;;14.20;5.63;;;14.20;99.90;;;;;;5071481;28;20028;-74
2021/03/25 12:50:54;;;;;;;15.65;5.63;;;14.90;99.60;;;;;;5070734;28;20228;-73
2021/03/25 12:53:21;;;;;;;14.55;5.22;;;15.00;96.40;;;;;;5082896;28;20096;-74
2021/03/25 12:55:47;;;;;;;10.80;4.68;;;15.30;96.30;;;;;;5067746;28;20465;-74
2021/03/25 12:58:19;;;;;;;9.40;3.72;;;15.40;94.60;;;;;;5070121;28;20066;-73
2021/03/25 13:00:46;;;;;;;10.55;4.03;;;15.30;92.40;;;;;;5069647;28;20024;-75
2021/03/25 13:03:11;;;;;;;8.30;3.60;;;14.60;91.50;;;;;;5064057;28;20147;-73
2021/03/25 13:05:37;;;;;;;8.65;3.92;;;14.50;91.80;;;;;;5065452;28;20217;-73
2021/03/25 13:08:03;;;;;;;9.55;4.28;;;14.60;92.10;;;;;;5070019;28;20020;-74
2021/03/25 13:10:30;;;;;;;8.75;3.80;;;14.90;92.20;;;;;;5070777;28;20056;-74
2021/03/25 13:12:59;;;;;;;6.72;3.25;;;14.70;89.10;;;;;;5060672;28;20130;-75
2021/03/25 13:15:26;;;;;;;14.60;3.78;;;15.10;89.60;;;;;;5071956;28;20029;-73